sensor_id;sensor_type;location;lat;lon;timestamp;P1;durP1;ratioP1;P2;durP2;ratioP2
34872;SDS011;21084;51.098;14.506;2022-12-29T00:01:11;7.20;;;3.53;;
34872;SDS011;21084;51.098;14.506;2022-12-29T00:03:41;10.60;;;4.13;;
34872;SDS011;21084;51.098;14.506;2022-12-29T00:06:09;12.20;;;3.63;;
34872;SDS011;21084;51.098;14.506;2022-12-29T00:08:38;5.63;;;3.50;;
34872;SDS011;21084;51.098;14.506;2022-12-29T00:11:10;9.38;;;3.53;;
34872;SDS011;21084;51.098;14.506;2022-12-29T00:13:39;8.52;;;4.50;;
34872;SDS011;21084;51.098;14.506;2022-12-29T00:16:26;7.93;;;3.83;;
34872;SDS011;21084;51.098;14.506;2022-12-29T00:18:56;8.50;;;4.05;;
34872;SDS011;21084;51.098;14.506;2022-12-29T00:21:25;5.53;;;3.58;;
34872;SDS011;21084;51.098;14.506;2022-12-29T00:24:12;9.88;;;3.95;;
34872;SDS011;21084;51.098;14.506;2022-12-29T00:27:07;7.57;;;3.85;;
34872;SDS011;21084;51.098;14.506;2022-12-29T00:29:57;10.02;;;4.15;;
34872;SDS011;21084;51.098;14.506;2022-12-29T00:32:43;6.43;;;3.90;;
34872;SDS011;21084;51.098;14.506;2022-12-29T00:35:31;6.88;;;3.95;;
34872;SDS011;21084;51.098;14.506;2022-12-29T00:38:04;9.05;;;4.60;;
34872;SDS011;21084;51.098;14.506;2022-12-29T00:40:52;7.13;;;4.07;;
34872;SDS011;21084;51.098;14.506;2022-12-29T00:43:38;9.23;;;3.90;;
34872;SDS011;21084;51.098;14.506;2022-12-29T00:46:24;8.80;;;3.80;;
34872;SDS011;21084;51.098;14.506;2022-12-29T00:48:52;6.13;;;3.72;;
34872;SDS011;21084;51.098;14.506;2022-12-29T00:51:41;8.65;;;4.05;;
34872;SDS011;21084;51.098;14.506;2022-12-29T00:54:09;9.35;;;3.90;;
34872;SDS011;21084;51.098;14.506;2022-12-29T00:56:39;10.07;;;4.03;;
34872;SDS011;21084;51.098;14.506;2022-12-29T00:59:09;8.07;;;3.75;;
34872;SDS011;21084;51.098;14.506;2022-12-29T01:01:38;9.05;;;3.90;;
34872;SDS011;21084;51.098;14.506;2022-12-29T01:04:07;8.77;;;4.63;;
34872;SDS011;21084;51.098;14.506;2022-12-29T01:06:36;10.18;;;4.03;;
34872;SDS011;21084;51.098;14.506;2022-12-29T01:09:07;6.38;;;3.80;;
34872;SDS011;21084;51.098;14.506;2022-12-29T01:11:54;12.10;;;4.25;;
34872;SDS011;21084;51.098;14.506;2022-12-29T01:14:22;6.47;;;4.28;;
34872;SDS011;21084;51.098;14.506;2022-12-29T01:16:51;9.52;;;4.03;;
34872;SDS011;21084;51.098;14.506;2022-12-29T01:19:20;8.02;;;4.10;;
34872;SDS011;21084;51.098;14.506;2022-12-29T01:21:49;8.80;;;4.63;;
34872;SDS011;21084;51.098;14.506;2022-12-29T01:24:19;8.10;;;4.28;;
34872;SDS011;21084;51.098;14.506;2022-12-29T01:26:49;9.48;;;4.18;;
34872;SDS011;21084;51.098;14.506;2022-12-29T01:29:17;6.85;;;4.15;;
34872;SDS011;21084;51.098;14.506;2022-12-29T01:31:46;9.35;;;4.60;;
34872;SDS011;21084;51.098;14.506;2022-12-29T01:34:16;10.10;;;4.57;;
34872;SDS011;21084;51.098;14.506;2022-12-29T01:36:45;10.10;;;4.57;;
34872;SDS011;21084;51.098;14.506;2022-12-29T01:39:14;9.43;;;4.65;;
34872;SDS011;21084;51.098;14.506;2022-12-29T01:41:44;6.87;;;4.37;;
34872;SDS011;21084;51.098;14.506;2022-12-29T01:47:17;10.63;;;4.32;;
34872;SDS011;21084;51.098;14.506;2022-12-29T01:49:51;10.63;;;4.05;;
34872;SDS011;21084;51.098;14.506;2022-12-29T01:52:21;8.40;;;4.70;;
34872;SDS011;21084;51.098;14.506;2022-12-29T01:54:52;9.88;;;4.88;;
34872;SDS011;21084;51.098;14.506;2022-12-29T01:57:25;7.68;;;4.13;;
34872;SDS011;21084;51.098;14.506;2022-12-29T01:59:58;7.47;;;4.45;;
34872;SDS011;21084;51.098;14.506;2022-12-29T02:02:30;8.63;;;4.25;;
34872;SDS011;21084;51.098;14.506;2022-12-29T02:05:00;9.00;;;4.22;;
34872;SDS011;21084;51.098;14.506;2022-12-29T02:07:33;8.05;;;4.47;;
34872;SDS011;21084;51.098;14.506;2022-12-29T02:10:02;10.53;;;5.20;;
34872;SDS011;21084;51.098;14.506;2022-12-29T02:12:32;9.57;;;4.85;;
34872;SDS011;21084;51.098;14.506;2022-12-29T02:15:02;9.32;;;4.85;;
34872;SDS011;21084;51.098;14.506;2022-12-29T02:17:39;9.10;;;4.20;;
34872;SDS011;21084;51.098;14.506;2022-12-29T02:23:30;10.75;;;4.40;;
34872;SDS011;21084;51.098;14.506;2022-12-29T02:29:32;7.13;;;3.92;;
34872;SDS011;21084;51.098;14.506;2022-12-29T02:32:21;6.82;;;4.10;;
34872;SDS011;21084;51.098;14.506;2022-12-29T02:34:57;7.07;;;4.00;;
34872;SDS011;21084;51.098;14.506;2022-12-29T02:37:34;10.05;;;4.10;;
34872;SDS011;21084;51.098;14.506;2022-12-29T02:40:13;7.90;;;3.78;;
34872;SDS011;21084;51.098;14.506;2022-12-29T02:42:51;6.85;;;3.63;;
34872;SDS011;21084;51.098;14.506;2022-12-29T02:45:29;6.88;;;3.33;;
34872;SDS011;21084;51.098;14.506;2022-12-29T02:48:07;5.93;;;3.90;;
34872;SDS011;21084;51.098;14.506;2022-12-29T02:50:46;6.68;;;3.97;;
34872;SDS011;21084;51.098;14.506;2022-12-29T02:53:20;7.40;;;3.70;;
34872;SDS011;21084;51.098;14.506;2022-12-29T02:56:10;6.25;;;3.63;;
34872;SDS011;21084;51.098;14.506;2022-12-29T02:58:37;5.53;;;3.40;;
34872;SDS011;21084;51.098;14.506;2022-12-29T03:01:23;9.45;;;3.80;;
34872;SDS011;21084;51.098;14.506;2022-12-29T03:04:06;6.38;;;3.90;;
34872;SDS011;21084;51.098;14.506;2022-12-29T03:06:50;9.95;;;3.60;;
34872;SDS011;21084;51.098;14.506;2022-12-29T03:09:26;6.90;;;3.85;;
34872;SDS011;21084;51.098;14.506;2022-12-29T03:12:07;7.55;;;3.63;;
34872;SDS011;21084;51.098;14.506;2022-12-29T03:14:49;9.13;;;3.92;;
34872;SDS011;21084;51.098;14.506;2022-12-29T03:17:46;8.98;;;3.83;;
34872;SDS011;21084;51.098;14.506;2022-12-29T03:20:23;10.10;;;3.97;;
34872;SDS011;21084;51.098;14.506;2022-12-29T03:22:55;5.90;;;3.42;;
34872;SDS011;21084;51.098;14.506;2022-12-29T03:25:28;6.63;;;4.05;;
34872;SDS011;21084;51.098;14.506;2022-12-29T03:28:00;7.32;;;4.03;;
34872;SDS011;21084;51.098;14.506;2022-12-29T03:30:31;7.75;;;3.47;;
34872;SDS011;21084;51.098;14.506;2022-12-29T03:33:06;5.65;;;3.35;;
34872;SDS011;21084;51.098;14.506;2022-12-29T03:35:38;7.65;;;3.83;;
34872;SDS011;21084;51.098;14.506;2022-12-29T03:38:12;8.20;;;3.78;;
34872;SDS011;21084;51.098;14.506;2022-12-29T03:40:45;5.30;;;3.30;;
34872;SDS011;21084;51.098;14.506;2022-12-29T03:43:17;7.43;;;3.72;;
34872;SDS011;21084;51.098;14.506;2022-12-29T03:45:46;8.02;;;3.78;;
34872;SDS011;21084;51.098;14.506;2022-12-29T03:48:15;6.78;;;3.40;;
34872;SDS011;21084;51.098;14.506;2022-12-29T03:50:45;7.93;;;3.45;;
34872;SDS011;21084;51.098;14.506;2022-12-29T03:53:13;8.02;;;3.33;;
34872;SDS011;21084;51.098;14.506;2022-12-29T03:55:42;9.10;;;3.25;;
34872;SDS011;21084;51.098;14.506;2022-12-29T03:58:10;6.25;;;4.10;;
34872;SDS011;21084;51.098;14.506;2022-12-29T04:00:40;7.18;;;3.53;;
34872;SDS011;21084;51.098;14.506;2022-12-29T04:03:08;4.95;;;2.88;;
34872;SDS011;21084;51.098;14.506;2022-12-29T04:05:37;5.50;;;3.53;;
34872;SDS011;21084;51.098;14.506;2022-12-29T04:08:07;7.18;;;2.83;;
34872;SDS011;21084;51.098;14.506;2022-12-29T04:10:36;7.18;;;3.42;;
34872;SDS011;21084;51.098;14.506;2022-12-29T04:13:05;7.28;;;3.30;;
34872;SDS011;21084;51.098;14.506;2022-12-29T04:15:33;7.30;;;3.50;;
34872;SDS011;21084;51.098;14.506;2022-12-29T04:18:02;11.32;;;3.60;;
34872;SDS011;21084;51.098;14.506;2022-12-29T04:20:30;8.50;;;3.67;;
34872;SDS011;21084;51.098;14.506;2022-12-29T04:23:18;5.90;;;3.20;;
34872;SDS011;21084;51.098;14.506;2022-12-29T04:28:15;5.07;;;3.10;;
34872;SDS011;21084;51.098;14.506;2022-12-29T04:30:44;8.70;;;2.95;;
34872;SDS011;21084;51.098;14.506;2022-12-29T04:33:13;9.30;;;3.72;;
34872;SDS011;21084;51.098;14.506;2022-12-29T04:35:44;6.95;;;3.10;;
34872;SDS011;21084;51.098;14.506;2022-12-29T04:38:13;6.00;;;3.15;;
34872;SDS011;21084;51.098;14.506;2022-12-29T04:40:44;3.65;;;2.67;;
34872;SDS011;21084;51.098;14.506;2022-12-29T04:43:13;5.15;;;2.65;;
34872;SDS011;21084;51.098;14.506;2022-12-29T04:45:44;8.30;;;3.22;;
34872;SDS011;21084;51.098;14.506;2022-12-29T04:48:13;5.85;;;3.00;;
34872;SDS011;21084;51.098;14.506;2022-12-29T04:50:41;6.00;;;3.03;;
34872;SDS011;21084;51.098;14.506;2022-12-29T04:53:10;7.68;;;3.15;;
34872;SDS011;21084;51.098;14.506;2022-12-29T04:55:38;7.25;;;3.10;;
34872;SDS011;21084;51.098;14.506;2022-12-29T04:58:08;7.82;;;3.00;;
34872;SDS011;21084;51.098;14.506;2022-12-29T05:00:43;4.40;;;2.50;;
34872;SDS011;21084;51.098;14.506;2022-12-29T05:03:11;8.32;;;3.22;;
34872;SDS011;21084;51.098;14.506;2022-12-29T05:05:40;4.80;;;2.85;;
34872;SDS011;21084;51.098;14.506;2022-12-29T05:08:09;4.63;;;3.03;;
34872;SDS011;21084;51.098;14.506;2022-12-29T05:10:37;6.20;;;2.83;;
34872;SDS011;21084;51.098;14.506;2022-12-29T05:13:06;5.72;;;3.13;;
34872;SDS011;21084;51.098;14.506;2022-12-29T05:15:36;7.35;;;3.35;;
34872;SDS011;21084;51.098;14.506;2022-12-29T05:18:05;5.43;;;3.22;;
34872;SDS011;21084;51.098;14.506;2022-12-29T05:20:34;7.65;;;3.22;;
34872;SDS011;21084;51.098;14.506;2022-12-29T05:23:02;8.02;;;3.58;;
34872;SDS011;21084;51.098;14.506;2022-12-29T05:25:30;6.43;;;3.15;;
34872;SDS011;21084;51.098;14.506;2022-12-29T05:27:59;7.70;;;3.20;;
34872;SDS011;21084;51.098;14.506;2022-12-29T05:30:29;8.15;;;3.22;;
34872;SDS011;21084;51.098;14.506;2022-12-29T05:32:58;7.13;;;3.38;;
34872;SDS011;21084;51.098;14.506;2022-12-29T05:35:26;9.95;;;3.88;;
34872;SDS011;21084;51.098;14.506;2022-12-29T05:37:55;7.65;;;3.22;;
34872;SDS011;21084;51.098;14.506;2022-12-29T05:40:23;6.75;;;3.10;;
34872;SDS011;21084;51.098;14.506;2022-12-29T05:42:52;6.00;;;2.90;;
34872;SDS011;21084;51.098;14.506;2022-12-29T05:45:21;6.50;;;2.97;;
34872;SDS011;21084;51.098;14.506;2022-12-29T05:47:50;7.47;;;3.28;;
34872;SDS011;21084;51.098;14.506;2022-12-29T05:50:19;5.35;;;3.00;;
34872;SDS011;21084;51.098;14.506;2022-12-29T05:52:47;7.78;;;3.30;;
34872;SDS011;21084;51.098;14.506;2022-12-29T05:55:16;4.78;;;3.15;;
34872;SDS011;21084;51.098;14.506;2022-12-29T05:57:44;8.32;;;3.40;;
34872;SDS011;21084;51.098;14.506;2022-12-29T06:00:13;5.13;;;3.00;;
34872;SDS011;21084;51.098;14.506;2022-12-29T06:02:42;5.70;;;3.15;;
34872;SDS011;21084;51.098;14.506;2022-12-29T06:05:13;8.32;;;2.90;;
34872;SDS011;21084;51.098;14.506;2022-12-29T06:07:41;8.10;;;3.08;;
34872;SDS011;21084;51.098;14.506;2022-12-29T06:10:11;5.72;;;3.58;;
34872;SDS011;21084;51.098;14.506;2022-12-29T06:12:39;6.50;;;3.10;;
34872;SDS011;21084;51.098;14.506;2022-12-29T06:15:08;6.97;;;3.67;;
34872;SDS011;21084;51.098;14.506;2022-12-29T06:17:37;6.22;;;3.10;;
34872;SDS011;21084;51.098;14.506;2022-12-29T06:20:07;6.00;;;3.05;;
34872;SDS011;21084;51.098;14.506;2022-12-29T06:22:37;7.07;;;3.45;;
34872;SDS011;21084;51.098;14.506;2022-12-29T06:27:35;5.38;;;3.05;;
34872;SDS011;21084;51.098;14.506;2022-12-29T06:30:04;5.20;;;2.57;;
34872;SDS011;21084;51.098;14.506;2022-12-29T06:32:33;6.47;;;2.92;;
34872;SDS011;21084;51.098;14.506;2022-12-29T06:35:01;6.88;;;3.55;;
34872;SDS011;21084;51.098;14.506;2022-12-29T06:37:30;4.93;;;2.95;;
34872;SDS011;21084;51.098;14.506;2022-12-29T06:40:00;5.03;;;3.08;;
34872;SDS011;21084;51.098;14.506;2022-12-29T06:42:29;7.38;;;2.97;;
34872;SDS011;21084;51.098;14.506;2022-12-29T06:44:58;5.50;;;2.97;;
34872;SDS011;21084;51.098;14.506;2022-12-29T06:47:27;6.05;;;2.92;;
34872;SDS011;21084;51.098;14.506;2022-12-29T06:49:55;6.57;;;3.00;;
34872;SDS011;21084;51.098;14.506;2022-12-29T06:52:24;6.18;;;3.20;;
34872;SDS011;21084;51.098;14.506;2022-12-29T06:54:52;5.78;;;2.90;;
34872;SDS011;21084;51.098;14.506;2022-12-29T06:57:22;5.22;;;3.10;;
34872;SDS011;21084;51.098;14.506;2022-12-29T06:59:53;7.60;;;3.10;;
34872;SDS011;21084;51.098;14.506;2022-12-29T07:02:23;6.72;;;3.25;;
34872;SDS011;21084;51.098;14.506;2022-12-29T07:04:52;10.20;;;3.17;;
34872;SDS011;21084;51.098;14.506;2022-12-29T07:07:21;5.85;;;3.35;;
34872;SDS011;21084;51.098;14.506;2022-12-29T07:09:49;4.97;;;3.00;;
34872;SDS011;21084;51.098;14.506;2022-12-29T07:12:18;5.78;;;3.00;;
34872;SDS011;21084;51.098;14.506;2022-12-29T07:14:48;4.75;;;2.78;;
34872;SDS011;21084;51.098;14.506;2022-12-29T07:17:16;7.65;;;3.33;;
34872;SDS011;21084;51.098;14.506;2022-12-29T07:19:45;6.72;;;3.10;;
34872;SDS011;21084;51.098;14.506;2022-12-29T07:22:14;7.53;;;3.10;;
34872;SDS011;21084;51.098;14.506;2022-12-29T07:24:42;7.40;;;3.92;;
34872;SDS011;21084;51.098;14.506;2022-12-29T07:27:11;9.30;;;3.38;;
34872;SDS011;21084;51.098;14.506;2022-12-29T07:29:39;7.82;;;3.30;;
34872;SDS011;21084;51.098;14.506;2022-12-29T07:32:09;7.82;;;3.13;;
34872;SDS011;21084;51.098;14.506;2022-12-29T07:34:38;6.43;;;3.20;;
34872;SDS011;21084;51.098;14.506;2022-12-29T07:37:07;6.95;;;4.00;;
34872;SDS011;21084;51.098;14.506;2022-12-29T07:39:35;6.30;;;3.10;;
34872;SDS011;21084;51.098;14.506;2022-12-29T07:42:04;5.32;;;2.95;;
34872;SDS011;21084;51.098;14.506;2022-12-29T07:44:32;7.03;;;3.42;;
34872;SDS011;21084;51.098;14.506;2022-12-29T07:47:01;7.07;;;3.35;;
34872;SDS011;21084;51.098;14.506;2022-12-29T07:49:31;5.63;;;3.00;;
34872;SDS011;21084;51.098;14.506;2022-12-29T07:51:59;10.80;;;3.45;;
34872;SDS011;21084;51.098;14.506;2022-12-29T07:54:28;5.22;;;3.22;;
34872;SDS011;21084;51.098;14.506;2022-12-29T07:56:56;6.13;;;3.22;;
34872;SDS011;21084;51.098;14.506;2022-12-29T07:59:26;6.78;;;3.42;;
34872;SDS011;21084;51.098;14.506;2022-12-29T08:01:55;5.35;;;3.35;;
34872;SDS011;21084;51.098;14.506;2022-12-29T08:04:23;8.93;;;3.92;;
34872;SDS011;21084;51.098;14.506;2022-12-29T08:06:53;7.10;;;3.70;;
34872;SDS011;21084;51.098;14.506;2022-12-29T08:09:22;7.00;;;4.00;;
34872;SDS011;21084;51.098;14.506;2022-12-29T08:11:50;6.38;;;3.20;;
34872;SDS011;21084;51.098;14.506;2022-12-29T08:14:19;7.60;;;3.60;;
34872;SDS011;21084;51.098;14.506;2022-12-29T08:16:48;5.20;;;3.25;;
34872;SDS011;21084;51.098;14.506;2022-12-29T08:19:17;16.55;;;5.00;;
34872;SDS011;21084;51.098;14.506;2022-12-29T08:21:45;7.75;;;3.50;;
34872;SDS011;21084;51.098;14.506;2022-12-29T08:24:15;7.47;;;3.80;;
34872;SDS011;21084;51.098;14.506;2022-12-29T08:29:12;5.63;;;2.70;;
34872;SDS011;21084;51.098;14.506;2022-12-29T08:31:40;5.30;;;2.90;;
34872;SDS011;21084;51.098;14.506;2022-12-29T08:34:09;4.10;;;2.88;;
34872;SDS011;21084;51.098;14.506;2022-12-29T08:36:38;4.60;;;2.63;;
34872;SDS011;21084;51.098;14.506;2022-12-29T08:39:06;7.15;;;3.38;;
34872;SDS011;21084;51.098;14.506;2022-12-29T08:41:37;5.50;;;2.95;;
34872;SDS011;21084;51.098;14.506;2022-12-29T08:44:05;4.43;;;2.92;;
34872;SDS011;21084;51.098;14.506;2022-12-29T08:46:34;7.22;;;3.13;;
34872;SDS011;21084;51.098;14.506;2022-12-29T08:49:03;5.88;;;2.92;;
34872;SDS011;21084;51.098;14.506;2022-12-29T08:51:31;6.22;;;3.13;;
34872;SDS011;21084;51.098;14.506;2022-12-29T08:54:00;5.93;;;3.40;;
34872;SDS011;21084;51.098;14.506;2022-12-29T08:56:28;4.65;;;2.88;;
34872;SDS011;21084;51.098;14.506;2022-12-29T08:58:58;10.93;;;3.50;;
34872;SDS011;21084;51.098;14.506;2022-12-29T09:01:27;6.55;;;3.55;;
34872;SDS011;21084;51.098;14.506;2022-12-29T09:06:43;5.63;;;3.10;;
34872;SDS011;21084;51.098;14.506;2022-12-29T09:09:12;7.10;;;3.20;;
34872;SDS011;21084;51.098;14.506;2022-12-29T09:11:41;6.80;;;3.42;;
34872;SDS011;21084;51.098;14.506;2022-12-29T09:14:11;8.73;;;3.10;;
34872;SDS011;21084;51.098;14.506;2022-12-29T09:16:40;7.53;;;3.45;;
34872;SDS011;21084;51.098;14.506;2022-12-29T09:19:26;8.73;;;3.38;;
34872;SDS011;21084;51.098;14.506;2022-12-29T09:21:55;5.93;;;3.20;;
34872;SDS011;21084;51.098;14.506;2022-12-29T09:24:23;4.93;;;3.10;;
34872;SDS011;21084;51.098;14.506;2022-12-29T09:26:52;5.97;;;2.95;;
34872;SDS011;21084;51.098;14.506;2022-12-29T09:29:22;7.97;;;3.20;;
34872;SDS011;21084;51.098;14.506;2022-12-29T09:31:50;6.43;;;2.85;;
34872;SDS011;21084;51.098;14.506;2022-12-29T09:34:19;5.95;;;3.20;;
34872;SDS011;21084;51.098;14.506;2022-12-29T09:36:47;4.90;;;2.75;;
34872;SDS011;21084;51.098;14.506;2022-12-29T09:39:16;4.78;;;2.95;;
34872;SDS011;21084;51.098;14.506;2022-12-29T09:41:46;7.75;;;2.95;;
34872;SDS011;21084;51.098;14.506;2022-12-29T09:44:23;5.38;;;2.65;;
34872;SDS011;21084;51.098;14.506;2022-12-29T09:46:59;9.73;;;3.23;;
34872;SDS011;21084;51.098;14.506;2022-12-29T09:49:28;5.77;;;2.67;;
34872;SDS011;21084;51.098;14.506;2022-12-29T09:52:02;3.40;;;2.50;;
34872;SDS011;21084;51.098;14.506;2022-12-29T09:54:38;5.88;;;3.28;;
34872;SDS011;21084;51.098;14.506;2022-12-29T09:57:21;7.47;;;3.20;;
34872;SDS011;21084;51.098;14.506;2022-12-29T09:59:56;8.25;;;2.72;;
34872;SDS011;21084;51.098;14.506;2022-12-29T10:02:32;7.28;;;2.80;;
34872;SDS011;21084;51.098;14.506;2022-12-29T10:05:13;4.38;;;2.20;;
34872;SDS011;21084;51.098;14.506;2022-12-29T10:07:49;5.93;;;2.88;;
34872;SDS011;21084;51.098;14.506;2022-12-29T10:10:26;4.60;;;2.50;;
34872;SDS011;21084;51.098;14.506;2022-12-29T10:13:10;4.25;;;2.15;;
34872;SDS011;21084;51.098;14.506;2022-12-29T10:15:54;7.07;;;2.90;;
34872;SDS011;21084;51.098;14.506;2022-12-29T10:18:34;7.60;;;2.83;;
34872;SDS011;21084;51.098;14.506;2022-12-29T10:21:28;3.42;;;2.13;;
34872;SDS011;21084;51.098;14.506;2022-12-29T10:24:10;5.32;;;2.90;;
34872;SDS011;21084;51.098;14.506;2022-12-29T10:26:40;5.15;;;2.42;;
34872;SDS011;21084;51.098;14.506;2022-12-29T10:29:13;6.13;;;2.20;;
34872;SDS011;21084;51.098;14.506;2022-12-29T10:31:46;6.78;;;2.90;;
34872;SDS011;21084;51.098;14.506;2022-12-29T10:34:19;7.20;;;2.63;;
34872;SDS011;21084;51.098;14.506;2022-12-29T10:36:53;4.50;;;2.60;;
34872;SDS011;21084;51.098;14.506;2022-12-29T10:39:26;5.40;;;2.58;;
34872;SDS011;21084;51.098;14.506;2022-12-29T10:42:04;6.50;;;3.10;;
34872;SDS011;21084;51.098;14.506;2022-12-29T10:44:39;4.18;;;2.40;;
34872;SDS011;21084;51.098;14.506;2022-12-29T10:47:11;5.10;;;2.28;;
34872;SDS011;21084;51.098;14.506;2022-12-29T10:49:44;4.72;;;2.42;;
34872;SDS011;21084;51.098;14.506;2022-12-29T10:52:14;7.80;;;2.50;;
34872;SDS011;21084;51.098;14.506;2022-12-29T10:54:46;3.75;;;2.15;;
34872;SDS011;21084;51.098;14.506;2022-12-29T10:57:22;5.97;;;2.45;;
34872;SDS011;21084;51.098;14.506;2022-12-29T10:59:53;6.07;;;2.70;;
34872;SDS011;21084;51.098;14.506;2022-12-29T11:05:22;4.82;;;2.05;;
34872;SDS011;21084;51.098;14.506;2022-12-29T11:07:57;5.20;;;2.45;;
34872;SDS011;21084;51.098;14.506;2022-12-29T11:10:34;5.95;;;2.63;;
34872;SDS011;21084;51.098;14.506;2022-12-29T11:13:10;4.45;;;2.50;;
34872;SDS011;21084;51.098;14.506;2022-12-29T11:15:40;4.57;;;2.28;;
34872;SDS011;21084;51.098;14.506;2022-12-29T11:20:48;6.57;;;2.22;;
34872;SDS011;21084;51.098;14.506;2022-12-29T11:23:22;3.78;;;2.20;;
34872;SDS011;21084;51.098;14.506;2022-12-29T11:26:14;8.68;;;2.50;;
34872;SDS011;21084;51.098;14.506;2022-12-29T11:28:45;4.60;;;2.45;;
34872;SDS011;21084;51.098;14.506;2022-12-29T11:31:15;11.30;;;2.65;;
34872;SDS011;21084;51.098;14.506;2022-12-29T11:33:46;5.15;;;2.67;;
34872;SDS011;21084;51.098;14.506;2022-12-29T11:36:16;8.65;;;2.65;;
34872;SDS011;21084;51.098;14.506;2022-12-29T11:38:47;4.57;;;2.30;;
34872;SDS011;21084;51.098;14.506;2022-12-29T11:41:21;4.85;;;2.30;;
34872;SDS011;21084;51.098;14.506;2022-12-29T11:43:51;8.38;;;2.67;;
34872;SDS011;21084;51.098;14.506;2022-12-29T11:48:52;4.25;;;2.30;;
34872;SDS011;21084;51.098;14.506;2022-12-29T11:51:25;5.47;;;2.63;;
34872;SDS011;21084;51.098;14.506;2022-12-29T11:53:57;4.97;;;2.45;;
34872;SDS011;21084;51.098;14.506;2022-12-29T11:56:35;4.35;;;2.35;;
34872;SDS011;21084;51.098;14.506;2022-12-29T12:02:15;7.97;;;2.85;;
34872;SDS011;21084;51.098;14.506;2022-12-29T12:04:58;6.57;;;2.72;;
34872;SDS011;21084;51.098;14.506;2022-12-29T12:07:34;8.18;;;2.70;;
34872;SDS011;21084;51.098;14.506;2022-12-29T12:10:11;5.10;;;2.63;;
34872;SDS011;21084;51.098;14.506;2022-12-29T12:12:47;5.97;;;2.63;;
34872;SDS011;21084;51.098;14.506;2022-12-29T12:15:20;5.03;;;2.70;;
34872;SDS011;21084;51.098;14.506;2022-12-29T12:17:53;7.07;;;2.33;;
34872;SDS011;21084;51.098;14.506;2022-12-29T12:20:32;7.60;;;2.40;;
34872;SDS011;21084;51.098;14.506;2022-12-29T12:23:07;7.18;;;2.90;;
34872;SDS011;21084;51.098;14.506;2022-12-29T12:25:47;5.00;;;2.75;;
34872;SDS011;21084;51.098;14.506;2022-12-29T12:28:25;4.55;;;2.38;;
34872;SDS011;21084;51.098;14.506;2022-12-29T12:31:02;4.57;;;2.60;;
34872;SDS011;21084;51.098;14.506;2022-12-29T12:33:37;4.57;;;2.50;;
34872;SDS011;21084;51.098;14.506;2022-12-29T12:36:14;9.82;;;3.72;;
34872;SDS011;21084;51.098;14.506;2022-12-29T12:38:54;6.20;;;2.83;;
34872;SDS011;21084;51.098;14.506;2022-12-29T12:41:32;5.18;;;2.78;;
34872;SDS011;21084;51.098;14.506;2022-12-29T12:46:43;7.05;;;4.15;;
34872;SDS011;21084;51.098;14.506;2022-12-29T12:52:11;5.30;;;3.20;;
34872;SDS011;21084;51.098;14.506;2022-12-29T12:54:58;5.78;;;3.08;;
34872;SDS011;21084;51.098;14.506;2022-12-29T12:57:40;7.80;;;2.75;;
34872;SDS011;21084;51.098;14.506;2022-12-29T13:00:16;7.63;;;2.60;;
34872;SDS011;21084;51.098;14.506;2022-12-29T13:02:49;5.07;;;2.60;;
34872;SDS011;21084;51.098;14.506;2022-12-29T13:05:35;5.70;;;2.53;;
34872;SDS011;21084;51.098;14.506;2022-12-29T13:11:14;3.67;;;2.60;;
34872;SDS011;21084;51.098;14.506;2022-12-29T13:13:56;3.28;;;2.25;;
34872;SDS011;21084;51.098;14.506;2022-12-29T13:16:45;11.45;;;2.90;;
34872;SDS011;21084;51.098;14.506;2022-12-29T13:19:20;5.63;;;2.50;;
34872;SDS011;21084;51.098;14.506;2022-12-29T13:21:59;6.45;;;2.45;;
34872;SDS011;21084;51.098;14.506;2022-12-29T13:24:37;4.88;;;2.38;;
34872;SDS011;21084;51.098;14.506;2022-12-29T13:27:15;3.58;;;2.30;;
34872;SDS011;21084;51.098;14.506;2022-12-29T13:29:50;5.85;;;2.67;;
34872;SDS011;21084;51.098;14.506;2022-12-29T13:32:31;4.60;;;2.53;;
34872;SDS011;21084;51.098;14.506;2022-12-29T13:35:11;6.20;;;2.25;;
34872;SDS011;21084;51.098;14.506;2022-12-29T13:37:50;5.97;;;2.40;;
34872;SDS011;21084;51.098;14.506;2022-12-29T13:40:24;6.65;;;2.22;;
34872;SDS011;21084;51.098;14.506;2022-12-29T13:42:56;4.45;;;2.08;;
34872;SDS011;21084;51.098;14.506;2022-12-29T13:45:26;8.37;;;2.67;;
34872;SDS011;21084;51.098;14.506;2022-12-29T13:48:00;4.22;;;1.95;;
34872;SDS011;21084;51.098;14.506;2022-12-29T13:50:35;6.22;;;2.80;;
34872;SDS011;21084;51.098;14.506;2022-12-29T13:53:06;4.07;;;2.28;;
34872;SDS011;21084;51.098;14.506;2022-12-29T13:55:47;3.70;;;2.42;;
34872;SDS011;21084;51.098;14.506;2022-12-29T13:58:20;4.90;;;2.55;;
34872;SDS011;21084;51.098;14.506;2022-12-29T14:00:55;5.63;;;2.75;;
34872;SDS011;21084;51.098;14.506;2022-12-29T14:03:44;3.72;;;2.33;;
34872;SDS011;21084;51.098;14.506;2022-12-29T14:06:21;6.13;;;2.65;;
34872;SDS011;21084;51.098;14.506;2022-12-29T14:08:52;11.55;;;2.72;;
34872;SDS011;21084;51.098;14.506;2022-12-29T14:11:30;6.35;;;2.92;;
34872;SDS011;21084;51.098;14.506;2022-12-29T14:14:09;4.75;;;2.67;;
34872;SDS011;21084;51.098;14.506;2022-12-29T14:16:40;5.65;;;3.00;;
34872;SDS011;21084;51.098;14.506;2022-12-29T14:19:11;6.90;;;2.80;;
34872;SDS011;21084;51.098;14.506;2022-12-29T14:21:50;5.63;;;2.85;;
34872;SDS011;21084;51.098;14.506;2022-12-29T14:24:27;5.35;;;2.97;;
34872;SDS011;21084;51.098;14.506;2022-12-29T14:33:17;6.05;;;2.60;;
34872;SDS011;21084;51.098;14.506;2022-12-29T14:35:47;4.97;;;2.63;;
34872;SDS011;21084;51.098;14.506;2022-12-29T14:38:23;7.18;;;2.42;;
34872;SDS011;21084;51.098;14.506;2022-12-29T14:43:56;7.55;;;3.08;;
34872;SDS011;21084;51.098;14.506;2022-12-29T14:49:21;10.10;;;3.35;;
34872;SDS011;21084;51.098;14.506;2022-12-29T14:51:52;7.82;;;3.05;;
34872;SDS011;21084;51.098;14.506;2022-12-29T14:57:22;8.75;;;2.85;;
34872;SDS011;21084;51.098;14.506;2022-12-29T15:02:32;6.18;;;3.10;;
34872;SDS011;21084;51.098;14.506;2022-12-29T15:05:11;4.85;;;2.95;;
34872;SDS011;21084;51.098;14.506;2022-12-29T15:07:53;7.30;;;2.75;;
34872;SDS011;21084;51.098;14.506;2022-12-29T15:10:23;9.07;;;3.10;;
34872;SDS011;21084;51.098;14.506;2022-12-29T15:12:54;7.68;;;3.20;;
34872;SDS011;21084;51.098;14.506;2022-12-29T15:15:23;6.13;;;2.97;;
34872;SDS011;21084;51.098;14.506;2022-12-29T15:17:54;8.40;;;2.92;;
34872;SDS011;21084;51.098;14.506;2022-12-29T15:20:25;10.30;;;3.00;;
34872;SDS011;21084;51.098;14.506;2022-12-29T15:22:55;4.82;;;2.85;;
34872;SDS011;21084;51.098;14.506;2022-12-29T15:25:25;6.00;;;2.50;;
34872;SDS011;21084;51.098;14.506;2022-12-29T15:27:55;7.40;;;2.85;;
34872;SDS011;21084;51.098;14.506;2022-12-29T15:30:28;10.43;;;3.30;;
34872;SDS011;21084;51.098;14.506;2022-12-29T15:32:56;6.18;;;2.85;;
34872;SDS011;21084;51.098;14.506;2022-12-29T15:35:28;5.22;;;2.90;;
34872;SDS011;21084;51.098;14.506;2022-12-29T15:37:59;9.55;;;3.10;;
34872;SDS011;21084;51.098;14.506;2022-12-29T15:40:30;6.10;;;3.00;;
34872;SDS011;21084;51.098;14.506;2022-12-29T15:43:07;6.13;;;3.05;;
34872;SDS011;21084;51.098;14.506;2022-12-29T15:45:44;4.38;;;2.60;;
34872;SDS011;21084;51.098;14.506;2022-12-29T15:48:14;5.80;;;3.13;;
34872;SDS011;21084;51.098;14.506;2022-12-29T15:50:47;5.95;;;2.75;;
34872;SDS011;21084;51.098;14.506;2022-12-29T15:53:18;6.15;;;3.28;;
34872;SDS011;21084;51.098;14.506;2022-12-29T15:55:55;11.48;;;4.13;;
34872;SDS011;21084;51.098;14.506;2022-12-29T15:58:30;7.55;;;3.50;;
34872;SDS011;21084;51.098;14.506;2022-12-29T16:01:15;6.82;;;3.13;;
34872;SDS011;21084;51.098;14.506;2022-12-29T16:03:45;6.30;;;2.90;;